createdAt,value
2024-03-30T00:00:49.588Z,361.28
2024-03-30T00:01:49.022Z,362.87
2024-03-30T00:02:49.043Z,361.28
2024-03-30T00:03:48.957Z,360.89
2024-03-30T00:04:48.946Z,362.87
2024-03-30T00:05:49.612Z,361.68
2024-03-30T00:06:48.937Z,360.89
2024-03-30T00:07:48.998Z,360.49
2024-03-30T00:08:49.027Z,362.08
2024-03-30T00:09:49.015Z,363.27
2024-03-30T00:10:48.899Z,362.08
2024-03-30T00:11:49.284Z,363.67
2024-03-30T00:12:48.925Z,360.10
2024-03-30T00:13:48.842Z,362.08
2024-03-30T00:14:48.938Z,361.68
2024-03-30T00:15:48.824Z,362.47
2024-03-30T00:16:48.882Z,363.67
2024-03-30T00:17:49.306Z,361.28
2024-03-30T00:18:48.817Z,362.47
2024-03-30T00:19:48.878Z,361.28
2024-03-30T00:20:48.882Z,360.10
2024-03-30T00:21:48.887Z,360.10
2024-03-30T00:22:48.821Z,362.08
2024-03-30T00:23:49.151Z,363.27
2024-03-30T00:24:48.836Z,359.70
2024-03-30T00:25:48.672Z,360.10
2024-03-30T00:26:48.756Z,361.68
2024-03-30T00:27:48.687Z,361.68
2024-03-30T00:28:49.196Z,363.27
2024-03-30T00:29:48.640Z,362.87
2024-03-30T00:30:48.631Z,361.68
2024-03-30T00:31:48.585Z,361.28
2024-03-30T00:32:48.975Z,363.67
2024-03-30T00:33:48.574Z,360.49
2024-03-30T00:34:48.968Z,360.89
2024-03-30T00:35:48.756Z,362.08
2024-03-30T00:36:48.523Z,362.08
2024-03-30T00:37:48.564Z,363.67
2024-03-30T00:38:48.698Z,362.08
2024-03-30T00:39:48.497Z,360.49
2024-03-30T00:40:49.092Z,360.89
2024-03-30T00:41:48.515Z,363.27
2024-03-30T00:43:48.473Z,362.47
2024-03-30T00:44:48.473Z,361.68
2024-03-30T00:45:48.562Z,362.47
2024-03-30T00:46:48.862Z,362.08
2024-03-30T00:47:48.441Z,361.28
2024-03-30T00:48:48.499Z,363.27
2024-03-30T00:49:48.372Z,361.28
2024-03-30T00:50:48.400Z,363.27
2024-03-30T00:51:48.800Z,362.87
2024-03-30T00:52:48.445Z,361.68
2024-03-30T00:53:48.362Z,364.48
2024-03-30T00:54:48.376Z,362.08
2024-03-30T00:55:48.315Z,363.67
2024-03-30T00:56:48.761Z,362.08
2024-03-30T00:57:48.301Z,360.89
2024-03-30T00:58:48.246Z,362.47
2024-03-30T00:59:48.257Z,364.88
2024-03-30T01:00:48.265Z,363.67
2024-03-30T01:01:48.245Z,364.08
2024-03-30T01:02:48.780Z,363.27
2024-03-30T01:03:48.216Z,362.47
2024-03-30T01:04:48.205Z,364.48
2024-03-30T01:05:48.246Z,363.27
2024-03-30T01:06:48.280Z,365.29
2024-03-30T01:07:48.597Z,364.48
2024-03-30T01:08:48.135Z,363.67
2024-03-30T01:09:48.116Z,362.87
2024-03-30T01:10:48.081Z,365.29
2024-03-30T01:11:48.315Z,364.48
2024-03-30T01:12:48.472Z,363.27
2024-03-30T01:13:48.226Z,365.69
2024-03-30T01:14:48.152Z,363.27
2024-03-30T01:15:48.134Z,366.10
2024-03-30T01:16:48.150Z,364.08
2024-03-30T01:17:48.447Z,366.92
2024-03-30T01:18:48.254Z,364.88
2024-03-30T01:19:48.043Z,365.29
2024-03-30T01:20:48.154Z,365.29
2024-03-30T01:21:48.006Z,367.74
2024-03-30T01:22:47.995Z,366.10
2024-03-30T01:23:48.417Z,366.92
2024-03-30T01:24:48.064Z,364.48
2024-03-30T01:25:47.964Z,365.29
2024-03-30T01:26:47.932Z,365.29
2024-03-30T01:27:47.958Z,365.69
2024-03-30T01:28:48.419Z,367.33
2024-03-30T01:29:48.017Z,365.69
2024-03-30T01:30:47.860Z,367.74
2024-03-30T01:31:47.860Z,364.88
2024-03-30T01:32:47.951Z,367.74
2024-03-30T01:33:48.214Z,365.69
2024-03-30T01:34:47.808Z,366.92
2024-03-30T01:35:47.835Z,366.92
2024-03-30T01:36:47.834Z,366.92
2024-03-30T01:37:47.810Z,368.97
2024-03-30T01:38:48.143Z,365.69
2024-03-30T01:39:47.954Z,366.92
2024-03-30T01:40:47.727Z,365.69
2024-03-30T01:41:47.725Z,365.69
2024-03-30T01:42:47.757Z,367.74
2024-03-30T01:43:48.131Z,367.74
2024-03-30T01:44:47.753Z,366.51
2024-03-30T01:45:47.876Z,366.92
2024-03-30T01:46:47.812Z,369.80
2024-03-30T01:47:47.670Z,367.74
2024-03-30T01:48:48.199Z,368.56
2024-03-30T01:49:47.610Z,367.74
2024-03-30T01:50:47.791Z,366.10
2024-03-30T01:51:47.561Z,369.39
2024-03-30T01:52:49.432Z,369.39
2024-03-30T01:53:47.621Z,367.74
2024-03-30T01:54:47.978Z,367.33
2024-03-30T01:55:47.512Z,367.74
2024-03-30T01:56:47.715Z,368.56
2024-03-30T01:57:47.531Z,368.97
2024-03-30T01:58:47.572Z,368.15
2024-03-30T01:59:47.556Z,367.74
2024-03-30T02:00:47.874Z,368.97
2024-03-30T02:01:47.475Z,369.80
2024-03-30T02:02:47.637Z,369.39
2024-03-30T02:03:47.443Z,370.22
2024-03-30T02:04:47.427Z,370.22
2024-03-30T02:05:47.445Z,368.56
2024-03-30T02:06:47.817Z,369.80
2024-03-30T02:07:47.357Z,371.05
2024-03-30T02:08:47.468Z,369.39
2024-03-30T02:09:47.406Z,369.39
2024-03-30T02:10:47.361Z,369.39
2024-03-30T02:11:48.031Z,372.73
2024-03-30T02:12:47.295Z,370.22
2024-03-30T02:13:47.330Z,369.80
2024-03-30T02:14:47.447Z,370.22
2024-03-30T02:15:47.333Z,372.31
2024-03-30T02:16:47.713Z,371.89
2024-03-30T02:17:47.345Z,370.22
2024-03-30T02:18:47.262Z,372.73
2024-03-30T02:19:47.302Z,369.80
2024-03-30T02:20:47.211Z,370.63
2024-03-30T02:21:47.284Z,371.47
2024-03-30T02:22:47.612Z,371.05
2024-03-30T02:23:47.200Z,371.89
2024-03-30T02:24:47.200Z,371.05
2024-03-30T02:25:47.166Z,371.47
2024-03-30T02:26:47.236Z,372.31
2024-03-30T02:27:47.578Z,371.89
2024-03-30T02:28:47.185Z,374.42
2024-03-30T02:29:47.089Z,372.31
2024-03-30T02:30:47.098Z,374.00
2024-03-30T02:31:47.088Z,371.89
2024-03-30T02:32:47.072Z,372.31
2024-03-30T02:33:47.473Z,371.89
2024-03-30T02:34:47.227Z,372.73
2024-03-30T02:35:47.035Z,372.31
2024-03-30T02:36:47.037Z,372.73
2024-03-30T02:37:47.106Z,373.58
2024-03-30T02:38:47.470Z,372.73
2024-03-30T02:39:47.012Z,375.71
2024-03-30T02:40:47.011Z,374.85
2024-03-30T02:41:46.998Z,373.58
2024-03-30T02:42:46.977Z,371.05
2024-03-30T02:43:46.899Z,371.89
2024-03-30T02:44:47.365Z,373.58
2024-03-30T02:45:47.016Z,373.58
2024-03-30T02:46:46.981Z,373.58
2024-03-30T02:47:46.888Z,374.42
2024-03-30T02:48:46.846Z,374.42
2024-03-30T02:49:47.289Z,374.85
2024-03-30T02:50:46.935Z,374.42
2024-03-30T02:51:47.050Z,374.00
2024-03-30T02:52:46.901Z,374.42
2024-03-30T02:53:46.814Z,374.00
2024-03-30T02:54:47.230Z,374.00
2024-03-30T02:55:46.812Z,373.15
2024-03-30T02:56:46.737Z,375.28
2024-03-30T02:57:46.750Z,374.00
2024-03-30T02:58:46.719Z,375.71
2024-03-30T02:59:46.808Z,374.00
2024-03-30T03:00:47.121Z,375.28
2024-03-30T03:01:46.822Z,375.28
2024-03-30T03:02:46.673Z,373.58
2024-03-30T03:03:46.758Z,376.14
2024-03-30T03:04:46.620Z,374.00
2024-03-30T03:05:46.674Z,373.58
2024-03-30T03:06:47.114Z,374.42
2024-03-30T03:07:46.640Z,375.28
2024-03-30T03:08:46.660Z,375.28
2024-03-30T03:09:46.747Z,374.00
2024-03-30T03:10:46.608Z,374.85
2024-03-30T03:11:46.644Z,375.71
2024-03-30T03:12:47.018Z,373.15
2024-03-30T03:13:46.529Z,377.00
2024-03-30T03:14:46.536Z,375.28
2024-03-30T03:15:46.562Z,374.42
2024-03-30T03:16:46.577Z,375.28
2024-03-30T03:17:47.020Z,377.00
2024-03-30T03:18:46.490Z,377.00
2024-03-30T03:19:46.468Z,375.71
2024-03-30T03:20:46.520Z,377.43
2024-03-30T03:21:46.604Z,376.14
2024-03-30T03:22:46.438Z,377.00
2024-03-30T03:23:46.799Z,374.85
2024-03-30T03:24:46.431Z,375.28
2024-03-30T03:25:46.430Z,376.57
2024-03-30T03:26:46.479Z,375.28
2024-03-30T03:27:46.332Z,376.14
2024-03-30T03:28:46.402Z,379.65
2024-03-30T03:29:46.748Z,375.71
2024-03-30T03:30:46.353Z,376.14
2024-03-30T03:31:46.331Z,380.08
2024-03-30T03:32:46.458Z,377.43
2024-03-30T03:33:46.278Z,377.00
2024-03-30T03:34:46.837Z,377.43
2024-03-30T03:35:46.267Z,377.43
2024-03-30T03:36:46.226Z,377.00
2024-03-30T03:37:46.464Z,379.44
2024-03-30T03:38:46.294Z,379.01
2024-03-30T03:39:46.228Z,379.44
2024-03-30T03:40:46.642Z,378.79
2024-03-30T03:41:46.182Z,378.37
2024-03-30T03:42:46.353Z,381.17
2024-03-30T03:43:46.245Z,380.30
2024-03-30T03:44:46.189Z,379.87
2024-03-30T03:45:46.709Z,380.52
2024-03-30T03:46:46.126Z,380.30
2024-03-30T03:47:46.123Z,380.30
2024-03-30T03:48:46.219Z,381.60
2024-03-30T03:49:46.113Z,381.82
2024-03-30T03:50:47.387Z,379.87
2024-03-30T03:51:46.053Z,380.95
2024-03-30T03:52:46.014Z,380.52
2024-03-30T03:53:46.178Z,381.17
2024-03-30T03:54:46.022Z,381.38
2024-03-30T03:55:46.415Z,380.30
2024-03-30T03:56:46.032Z,381.17
2024-03-30T03:57:45.982Z,380.73
2024-03-30T03:58:45.934Z,379.65
2024-03-30T03:59:45.980Z,380.08
2024-03-30T04:00:45.947Z,378.58
2024-03-30T04:01:46.369Z,379.44
2024-03-30T04:02:46.031Z,380.08
2024-03-30T04:03:45.899Z,381.38
2024-03-30T04:04:45.882Z,380.52
2024-03-30T04:05:45.885Z,379.01
2024-03-30T04:06:45.950Z,379.65
2024-03-30T04:07:46.513Z,381.60
2024-03-30T04:08:46.033Z,380.73
2024-03-30T04:09:45.867Z,381.17
2024-03-30T04:10:46.053Z,382.26
2024-03-30T04:11:45.791Z,381.82
2024-03-30T04:12:46.182Z,379.65
2024-03-30T04:13:45.955Z,381.60
2024-03-30T04:14:45.749Z,380.08
2024-03-30T04:15:45.909Z,380.95
2024-03-30T04:16:45.750Z,383.13
2024-03-30T04:17:45.766Z,382.91
2024-03-30T04:18:46.219Z,382.26
2024-03-30T04:19:45.796Z,381.38
2024-03-30T04:20:45.732Z,385.78
2024-03-30T04:21:45.681Z,384.89
2024-03-30T04:22:45.661Z,384.01
2024-03-30T04:23:46.305Z,382.04
2024-03-30T04:24:45.647Z,382.04
2024-03-30T04:25:46.385Z,383.79
2024-03-30T04:26:45.614Z,381.60
2024-03-30T04:27:45.633Z,381.82
2024-03-30T04:28:45.880Z,383.57
2024-03-30T04:29:45.994Z,382.26
2024-03-30T04:30:45.819Z,381.82
2024-03-30T04:31:45.584Z,382.26
2024-03-30T04:32:45.629Z,385.11
2024-03-30T04:33:45.699Z,384.01
2024-03-30T04:34:45.894Z,382.69
2024-03-30T04:35:45.530Z,382.69
2024-03-30T04:36:45.517Z,383.13
2024-03-30T04:37:45.453Z,385.34
2024-03-30T04:38:45.523Z,383.57
2024-03-30T04:39:45.512Z,386.67
2024-03-30T04:40:45.900Z,384.01
2024-03-30T04:41:46.517Z,387.12
2024-03-30T04:42:45.386Z,384.45
2024-03-30T04:43:45.677Z,383.13
2024-03-30T04:44:45.375Z,383.79
2024-03-30T04:45:45.560Z,386.45
2024-03-30T04:46:45.795Z,384.89
2024-03-30T04:47:45.327Z,385.56
2024-03-30T04:48:45.411Z,384.45
2024-03-30T04:49:45.454Z,384.01
2024-03-30T04:50:45.303Z,384.67
2024-03-30T04:51:45.704Z,384.01
2024-03-30T04:52:45.363Z,384.67
2024-03-30T04:53:45.305Z,386.23
2024-03-30T04:54:45.413Z,385.11
2024-03-30T04:55:45.291Z,387.57
2024-03-30T04:56:45.638Z,384.67
2024-03-30T04:57:45.228Z,387.12
2024-03-30T04:58:45.167Z,385.34
2024-03-30T04:59:45.165Z,385.34
2024-03-30T05:00:45.185Z,384.01
2024-03-30T05:01:45.620Z,386.45
2024-03-30T05:02:45.253Z,384.89
2024-03-30T05:03:45.155Z,383.57
2024-03-30T05:04:45.103Z,387.12
2024-03-30T05:05:45.118Z,384.89
2024-03-30T05:06:45.083Z,384.67
2024-03-30T05:07:45.461Z,385.78
2024-03-30T05:08:45.200Z,385.34
2024-03-30T05:09:45.040Z,385.11
2024-03-30T05:10:45.071Z,385.34
2024-03-30T05:11:45.084Z,385.56
2024-03-30T05:12:46.007Z,385.56
2024-03-30T05:13:45.448Z,384.67
2024-03-30T05:14:44.991Z,384.23
2024-03-30T05:15:44.977Z,384.89
2024-03-30T05:16:44.962Z,386.23
2024-03-30T05:17:44.971Z,384.67
2024-03-30T05:18:44.924Z,382.04
2024-03-30T05:19:45.419Z,385.56
2024-03-30T05:20:44.968Z,384.67
2024-03-30T05:21:44.867Z,382.47
2024-03-30T05:22:44.984Z,384.67
2024-03-30T05:23:45.004Z,383.57
2024-03-30T05:24:44.861Z,385.56
2024-03-30T05:26:42.538Z,560.11
2024-03-30T05:27:42.506Z,495.43
2024-03-30T05:28:42.653Z,464.81
2024-03-30T05:29:42.725Z,448.01
2024-03-30T05:30:42.532Z,435.48
2024-03-30T05:31:42.516Z,424.43
2024-03-30T05:32:42.859Z,417.03
2024-03-30T05:33:42.585Z,415.73
2024-03-30T05:34:42.459Z,408.88
2024-03-30T05:35:42.476Z,405.65
2024-03-30T05:36:42.467Z,402.24
2024-03-30T05:37:42.881Z,399.60
2024-03-30T05:38:42.366Z,397.70
2024-03-30T05:39:42.708Z,396.76
2024-03-30T05:40:42.359Z,394.89
2024-03-30T05:41:42.378Z,392.80
2024-03-30T05:42:42.757Z,390.73
2024-03-30T05:43:42.631Z,390.28
2024-03-30T05:44:42.383Z,388.69
2024-03-30T05:45:42.313Z,387.79
2024-03-30T05:46:42.291Z,385.78
2024-03-30T05:47:42.773Z,385.34
2024-03-30T05:48:42.250Z,385.78
2024-03-30T05:49:42.240Z,383.35
2024-03-30T05:50:42.380Z,383.57
2024-03-30T05:51:42.228Z,383.13
2024-03-30T05:52:42.703Z,383.13
2024-03-30T05:53:42.199Z,381.82
2024-03-30T05:54:42.237Z,380.08
2024-03-30T05:55:42.147Z,380.08
2024-03-30T05:56:42.278Z,381.38
2024-03-30T05:57:42.579Z,380.30
2024-03-30T05:58:42.275Z,379.44
2024-03-30T05:59:42.088Z,379.44
2024-03-30T06:00:42.119Z,379.22
2024-03-30T06:01:42.098Z,380.08
2024-03-30T06:02:42.081Z,382.26
2024-03-30T06:03:42.622Z,377.43
2024-03-30T06:04:42.110Z,375.71
2024-03-30T06:05:42.329Z,379.87
2024-03-30T06:06:42.016Z,376.14
2024-03-30T06:07:42.063Z,376.14
2024-03-30T06:08:42.066Z,375.28
2024-03-30T06:09:42.364Z,374.42
2024-03-30T06:10:43.581Z,375.28
2024-03-30T06:11:42.089Z,374.00
2024-03-30T06:12:41.983Z,374.85
2024-03-30T06:13:41.923Z,373.58
2024-03-30T06:14:41.895Z,372.73
2024-03-30T06:15:42.335Z,374.42
2024-03-30T06:16:41.879Z,374.85
2024-03-30T06:17:41.871Z,373.58
2024-03-30T06:18:41.863Z,372.73
2024-03-30T06:19:41.902Z,373.15
2024-03-30T06:20:41.837Z,371.89
2024-03-30T06:21:42.448Z,371.89
2024-03-30T06:22:41.811Z,371.89
2024-03-30T06:23:41.804Z,372.31
2024-03-30T06:24:41.869Z,371.89
2024-03-30T06:25:41.765Z,372.73
2024-03-30T06:26:42.254Z,371.89
2024-03-30T06:27:41.863Z,373.58
2024-03-30T06:28:41.709Z,370.63
2024-03-30T06:29:41.806Z,372.31
2024-03-30T06:30:41.721Z,370.22
2024-03-30T06:31:41.846Z,369.39
2024-03-30T06:32:42.150Z,369.39
2024-03-30T06:33:41.684Z,368.97
2024-03-30T06:34:43.298Z,370.22
2024-03-30T06:35:41.826Z,370.22
2024-03-30T06:36:41.614Z,369.80
2024-03-30T06:37:41.633Z,368.56
2024-03-30T06:38:42.071Z,368.56
2024-03-30T06:39:41.668Z,366.92
2024-03-30T06:40:41.677Z,368.97
2024-03-30T06:41:41.558Z,366.92
2024-03-30T06:42:41.547Z,366.92
2024-03-30T06:43:42.054Z,365.69
2024-03-30T06:44:41.687Z,366.51
2024-03-30T06:45:41.536Z,365.29
2024-03-30T06:46:42.506Z,364.48
2024-03-30T06:47:41.513Z,370.22
2024-03-30T06:48:41.463Z,362.87
2024-03-30T06:49:41.915Z,362.47
2024-03-30T06:50:41.461Z,364.88
2024-03-30T06:51:41.521Z,360.89
2024-03-30T06:52:41.431Z,360.10
2024-03-30T06:53:41.669Z,366.51
2024-03-30T06:54:41.368Z,362.08
2024-03-30T06:55:41.990Z,364.48
2024-03-30T06:56:41.380Z,364.48
2024-03-30T06:57:41.317Z,364.08
2024-03-30T06:58:41.376Z,365.69
2024-03-30T06:59:41.375Z,363.27
2024-03-30T07:00:41.729Z,358.92
2024-03-30T07:01:41.337Z,357.36
2024-03-30T07:02:41.358Z,358.92
2024-03-30T07:03:41.421Z,364.48
2024-03-30T07:04:41.276Z,360.89
2024-03-30T07:05:41.319Z,361.28
2024-03-30T07:06:41.709Z,362.08
2024-03-30T07:07:41.275Z,355.82
2024-03-30T07:08:41.294Z,358.92
2024-03-30T07:09:41.319Z,359.70
2024-03-30T07:10:41.424Z,358.14
2024-03-30T07:11:43.412Z,358.14
2024-03-30T07:12:41.132Z,356.97
2024-03-30T07:13:41.118Z,356.20
2024-03-30T07:14:41.146Z,356.20
2024-03-30T07:15:42.424Z,357.75
2024-03-30T07:16:41.154Z,355.05
2024-03-30T07:17:43.584Z,355.05
2024-03-30T07:18:41.120Z,355.82
2024-03-30T07:19:41.035Z,352.77
2024-03-30T07:20:41.057Z,353.90
2024-03-30T07:21:41.132Z,355.05
2024-03-30T07:22:41.090Z,355.05
2024-03-30T07:23:41.438Z,352.77
2024-03-30T07:24:41.071Z,352.01
2024-03-30T07:25:41.148Z,351.26
2024-03-30T07:26:41.107Z,349.03
2024-03-30T07:27:41.022Z,349.03
2024-03-30T07:28:41.412Z,349.40
2024-03-30T07:29:40.920Z,348.29
2024-03-30T07:30:40.911Z,347.19
2024-03-30T07:31:40.918Z,346.10
2024-03-30T07:32:41.037Z,347.19
2024-03-30T07:33:41.331Z,342.50
2024-03-30T07:34:40.960Z,341.43
2024-03-30T07:35:40.923Z,341.08
2024-03-30T07:36:40.912Z,341.43
2024-03-30T07:37:41.040Z,341.08
2024-03-30T07:38:41.417Z,339.67
2024-03-30T07:39:40.812Z,337.23
2024-03-30T07:40:40.794Z,338.62
2024-03-30T07:41:40.852Z,335.86
2024-03-30T07:42:40.861Z,335.86
2024-03-30T07:43:40.769Z,334.83
2024-03-30T07:44:41.357Z,333.14
2024-03-30T07:45:40.716Z,333.14
2024-03-30T07:46:40.753Z,332.13
2024-03-30T07:47:40.738Z,330.80
2024-03-30T07:48:40.835Z,330.80
2024-03-30T07:49:40.670Z,329.48
2024-03-30T07:50:41.134Z,328.49
2024-03-30T07:51:40.690Z,328.49
2024-03-30T07:52:40.603Z,328.82
2024-03-30T07:53:40.701Z,326.21
2024-03-30T07:54:40.744Z,326.86
2024-03-30T07:55:40.996Z,325.89
2024-03-30T07:56:40.710Z,324.92
2024-03-30T07:57:40.604Z,323.97
2024-03-30T07:58:40.667Z,325.57
2024-03-30T07:59:40.603Z,322.07
2024-03-30T08:00:40.992Z,322.70
2024-03-30T08:01:40.545Z,322.07
2024-03-30T08:02:40.527Z,319.57
2024-03-30T08:03:40.526Z,320.19
2024-03-30T08:04:40.629Z,320.50
2024-03-30T08:05:40.874Z,319.26
2024-03-30T08:06:40.583Z,318.64
2024-03-30T08:07:40.484Z,317.41
2024-03-30T08:08:40.493Z,315.89
2024-03-30T08:09:40.455Z,316.80
2024-03-30T08:10:40.520Z,317.41
2024-03-30T08:11:40.805Z,315.89
2024-03-30T08:12:40.367Z,314.38
2024-03-30T08:13:40.429Z,314.98
2024-03-30T08:14:40.346Z,314.68
2024-03-30T08:15:40.333Z,313.48
2024-03-30T08:16:40.337Z,312.89
2024-03-30T08:17:40.746Z,312.59
2024-03-30T08:18:40.346Z,310.23
2024-03-30T08:19:40.274Z,312.00
2024-03-30T08:20:40.401Z,311.11
2024-03-30T08:21:40.282Z,308.78
2024-03-30T08:22:40.649Z,308.49
2024-03-30T08:23:40.248Z,306.77
2024-03-30T08:24:40.194Z,307.34
2024-03-30T08:25:40.385Z,308.49
2024-03-30T08:26:40.182Z,306.48
2024-03-30T08:27:40.700Z,305.63
2024-03-30T08:28:40.168Z,305.63
2024-03-30T08:29:40.139Z,305.06
2024-03-30T08:30:40.195Z,304.50
2024-03-30T08:31:40.238Z,303.10
2024-03-30T08:32:40.089Z,303.10
2024-03-30T08:33:40.497Z,301.71
2024-03-30T08:34:40.721Z,302.54
2024-03-30T08:35:40.109Z,301.43
2024-03-30T08:36:40.134Z,299.79
2024-03-30T08:37:40.045Z,299.24
2024-03-30T08:38:40.514Z,297.35
2024-03-30T08:39:40.042Z,297.89
2024-03-30T08:40:40.033Z,297.08
2024-03-30T08:41:40.007Z,296.01
2024-03-30T08:42:40.022Z,295.22
2024-03-30T08:43:40.026Z,294.16
2024-03-30T08:44:40.398Z,292.85
2024-03-30T08:45:40.227Z,292.85
2024-03-30T08:46:40.113Z,293.38
2024-03-30T08:47:39.949Z,292.33
2024-03-30T08:48:39.908Z,290.53
2024-03-30T08:49:39.969Z,291.30
2024-03-30T08:50:40.368Z,289.00
2024-03-30T08:51:39.907Z,290.02
2024-03-30T08:52:39.867Z,290.27
2024-03-30T08:53:39.977Z,289.76
2024-03-30T08:54:39.805Z,287.99
2024-03-30T08:55:39.857Z,287.74
2024-03-30T08:56:40.198Z,289.25
2024-03-30T08:57:39.863Z,287.49
2024-03-30T08:58:39.832Z,287.74
2024-03-30T08:59:39.850Z,286.73
2024-03-30T09:00:39.760Z,287.49
2024-03-30T09:01:40.171Z,285.24
2024-03-30T09:02:41.379Z,285.74
2024-03-30T09:03:39.849Z,284.02
2024-03-30T09:04:39.821Z,285.24
2024-03-30T09:05:39.709Z,282.80
2024-03-30T09:06:39.739Z,283.28
2024-03-30T09:07:40.173Z,281.83
2024-03-30T09:08:39.683Z,282.55
2024-03-30T09:09:39.760Z,280.87
2024-03-30T09:10:39.707Z,280.87
2024-03-30T09:11:39.691Z,280.87
2024-03-30T09:12:40.049Z,279.20
2024-03-30T09:13:39.831Z,279.20
2024-03-30T09:14:39.581Z,277.79
2024-03-30T09:15:40.266Z,275.69
2024-03-30T09:16:39.587Z,276.85
2024-03-30T09:17:40.014Z,275.46
2024-03-30T09:18:39.609Z,275.92
2024-03-30T09:19:39.565Z,274.55
2024-03-30T09:20:39.655Z,274.09
2024-03-30T09:21:39.525Z,273.86
2024-03-30T09:22:39.870Z,271.83
2024-03-30T09:23:39.447Z,272.27
2024-03-30T09:24:39.529Z,273.40
2024-03-30T09:25:39.500Z,270.93
2024-03-30T09:26:39.431Z,270.04
2024-03-30T09:27:39.853Z,270.93
2024-03-30T09:28:39.448Z,270.71
2024-03-30T09:29:39.436Z,269.60
2024-03-30T09:30:39.419Z,269.82
2024-03-30T09:31:39.399Z,267.85
2024-03-30T09:32:39.890Z,265.90
2024-03-30T09:33:39.431Z,266.55
2024-03-30T09:34:44.587Z,265.26
2024-03-30T09:35:40.796Z,263.98
2024-03-30T09:36:39.280Z,264.19
2024-03-30T09:37:39.363Z,263.56
2024-03-30T09:38:39.796Z,262.93
2024-03-30T09:39:39.320Z,261.47
2024-03-30T09:40:39.294Z,261.88
2024-03-30T09:41:39.228Z,259.00
2024-03-30T09:42:39.184Z,259.41
2024-03-30T09:43:39.591Z,258.19
2024-03-30T09:44:39.218Z,255.78
2024-03-30T09:45:39.276Z,255.78
2024-03-30T09:46:39.258Z,256.38
2024-03-30T09:47:39.183Z,255.78
2024-03-30T09:48:39.160Z,253.23
2024-03-30T09:49:39.602Z,252.26
2024-03-30T09:50:39.239Z,253.42
2024-03-30T09:51:39.175Z,252.26
2024-03-30T09:52:39.286Z,251.29
2024-03-30T09:53:39.127Z,250.34
2024-03-30T09:54:39.088Z,249.58
2024-03-30T09:55:39.508Z,249.01
2024-03-30T09:56:39.080Z,248.07
2024-03-30T09:57:39.009Z,248.45
2024-03-30T09:58:39.029Z,247.14
2024-03-30T09:59:39.087Z,244.76
2024-03-30T10:00:39.419Z,243.85
2024-03-30T10:01:38.963Z,244.21
2024-03-30T10:02:38.963Z,243.31
2024-03-30T10:03:38.949Z,244.03
2024-03-30T10:04:38.949Z,242.06
2024-03-30T10:05:39.318Z,239.07
2024-03-30T10:06:38.926Z,239.59
2024-03-30T10:07:38.896Z,237.86
2024-03-30T10:08:39.010Z,238.90
2024-03-30T10:09:38.904Z,237.35
2024-03-30T10:10:39.388Z,237.69
2024-03-30T10:11:38.886Z,234.98
2024-03-30T10:12:38.887Z,234.64
2024-03-30T10:13:38.919Z,236.67
2024-03-30T10:14:38.897Z,232.49
2024-03-30T10:15:38.842Z,231.35
2024-03-30T10:16:40.245Z,231.18
2024-03-30T10:17:38.756Z,231.18
2024-03-30T10:18:38.757Z,228.46
2024-03-30T10:19:38.733Z,227.82
2024-03-30T10:20:38.731Z,227.51
2024-03-30T10:21:38.792Z,226.57
2024-03-30T10:22:39.090Z,226.26
2024-03-30T10:23:38.726Z,225.02
2024-03-30T10:24:38.691Z,222.29
2024-03-30T10:25:38.701Z,222.74
2024-03-30T10:26:38.640Z,222.14
2024-03-30T10:27:39.084Z,220.36
2024-03-30T10:28:38.620Z,219.33
2024-03-30T10:29:38.699Z,218.02
2024-03-30T10:30:38.601Z,218.46
2024-03-30T10:31:38.544Z,215.74
2024-03-30T10:32:39.001Z,215.60
2024-03-30T10:33:38.576Z,213.91
2024-03-30T10:34:38.538Z,213.22
2024-03-30T10:35:38.569Z,213.64
2024-03-30T10:36:38.543Z,213.09
2024-03-30T10:37:39.051Z,211.44
2024-03-30T10:38:38.524Z,210.63
2024-03-30T10:39:38.495Z,209.83
2024-03-30T10:40:38.513Z,208.50
2024-03-30T10:41:38.499Z,208.37
2024-03-30T10:42:38.433Z,207.84
2024-03-30T10:43:38.957Z,206.54
2024-03-30T10:44:38.511Z,206.41
2024-03-30T10:45:38.467Z,205.12
2024-03-30T10:46:38.416Z,204.10
2024-03-30T10:47:38.456Z,202.85
2024-03-30T10:48:38.979Z,202.10
2024-03-30T10:49:38.358Z,202.85
2024-03-30T10:50:38.329Z,200.26
2024-03-30T10:51:38.377Z,198.93
2024-03-30T10:52:38.463Z,199.05
2024-03-30T10:53:38.679Z,197.73
2024-03-30T10:54:38.364Z,197.02
2024-03-30T10:55:38.354Z,195.97
2024-03-30T10:56:38.282Z,194.69
2024-03-30T10:57:38.312Z,194.35
2024-03-30T10:58:38.925Z,194.46
2024-03-30T10:59:38.818Z,193.78
2024-03-30T11:00:38.256Z,192.53
2024-03-30T11:01:38.220Z,191.19
2024-03-30T11:02:38.901Z,190.86
2024-03-30T11:03:38.237Z,189.98
2024-03-30T11:04:38.161Z,189.43
2024-03-30T11:05:38.568Z,189.54
2024-03-30T11:06:38.112Z,189.00
2024-03-30T11:07:38.179Z,187.81
2024-03-30T11:08:38.137Z,186.74
2024-03-30T11:09:38.116Z,186.85
2024-03-30T11:10:38.538Z,187.49
2024-03-30T11:11:38.215Z,185.29
2024-03-30T11:12:38.066Z,185.29
2024-03-30T11:13:38.198Z,184.67
2024-03-30T11:14:38.053Z,184.88
2024-03-30T11:15:38.465Z,182.66
2024-03-30T11:16:38.123Z,181.67
2024-03-30T11:17:37.993Z,181.47
2024-03-30T11:18:37.967Z,181.08
2024-03-30T11:19:38.061Z,178.38
2024-03-30T11:20:38.471Z,178.00
2024-03-30T11:21:37.974Z,177.81
2024-03-30T11:22:38.601Z,176.69
2024-03-30T11:23:37.943Z,175.58
2024-03-30T11:24:37.885Z,173.93
2024-03-30T11:25:37.886Z,173.40
2024-03-30T11:26:38.265Z,172.15
2024-03-30T11:27:37.914Z,171.09
2024-03-30T11:28:37.901Z,169.88
2024-03-30T11:29:39.227Z,169.88
2024-03-30T11:30:46.353Z,168.17
2024-03-30T11:31:39.731Z,168.34
2024-03-30T11:32:37.835Z,166.50
2024-03-30T11:33:37.826Z,165.35
2024-03-30T11:34:37.795Z,165.35
2024-03-30T11:35:37.790Z,163.10
2024-03-30T11:36:37.788Z,162.78
2024-03-30T11:37:38.198Z,161.84
2024-03-30T11:38:41.517Z,161.06
2024-03-30T11:39:37.719Z,159.68
2024-03-30T11:40:37.689Z,160.59
2024-03-30T11:41:37.855Z,159.52
2024-03-30T11:42:37.749Z,156.98
2024-03-30T11:43:38.108Z,156.10
2024-03-30T11:44:37.677Z,156.98
2024-03-30T11:45:37.710Z,155.52
2024-03-30T11:46:37.637Z,155.52
2024-03-30T11:47:37.696Z,153.95
2024-03-30T11:48:38.073Z,153.39
2024-03-30T11:49:37.587Z,152.69
2024-03-30T11:50:37.589Z,151.86
2024-03-30T11:51:37.579Z,151.31
2024-03-30T11:52:37.649Z,149.82
2024-03-30T11:53:37.533Z,149.42
2024-03-30T11:54:37.984Z,147.84
2024-03-30T11:55:37.526Z,147.06
2024-03-30T11:56:37.537Z,146.29
2024-03-30T11:57:37.518Z,146.29
2024-03-30T11:58:38.906Z,146.16
2024-03-30T11:59:37.459Z,145.52
2024-03-30T12:00:37.830Z,144.15
2024-03-30T12:01:37.427Z,144.27
2024-03-30T12:02:37.417Z,142.55
2024-03-30T12:03:37.458Z,142.07
2024-03-30T12:04:37.455Z,141.71
2024-03-30T12:05:37.901Z,140.87
2024-03-30T12:06:37.383Z,140.64
2024-03-30T12:07:37.351Z,139.82
2024-03-30T12:08:37.330Z,139.35
2024-03-30T12:09:37.369Z,138.43
2024-03-30T12:10:37.769Z,137.86
2024-03-30T12:11:37.317Z,137.07
2024-03-30T12:12:37.355Z,136.40
2024-03-30T12:13:37.310Z,136.73
2024-03-30T12:14:37.389Z,136.73
2024-03-30T12:15:37.692Z,135.63
2024-03-30T12:16:37.268Z,134.97
2024-03-30T12:17:37.292Z,134.00
2024-03-30T12:18:37.252Z,133.68
2024-03-30T12:19:37.272Z,133.47
2024-03-30T12:20:37.728Z,132.73
2024-03-30T12:21:37.168Z,131.99
2024-03-30T12:22:37.190Z,131.17
2024-03-30T12:23:37.162Z,131.06
2024-03-30T12:24:37.146Z,130.45
2024-03-30T12:25:37.173Z,130.35
2024-03-30T12:26:37.726Z,130.05
2024-03-30T12:27:37.109Z,129.74
2024-03-30T12:28:37.113Z,128.75
2024-03-30T12:29:40.550Z,128.55
2024-03-30T12:30:37.267Z,127.96